createdAt,value
2017-09-21T00:00:44.248Z,79.70
2017-09-21T00:03:15.326Z,79.88
2017-09-21T00:05:46.412Z,80.07
2017-09-21T00:08:18.504Z,80.29
2017-09-21T00:10:49.581Z,80.32
2017-09-21T00:13:20.683Z,80.37
2017-09-21T00:15:52.097Z,80.42
2017-09-21T00:18:24.083Z,80.50
2017-09-21T00:20:55.474Z,80.55
2017-09-21T00:23:28.155Z,80.82
2017-09-21T00:25:59.233Z,80.80
2017-09-21T00:28:30.981Z,80.80
2017-09-21T00:31:02.561Z,80.82
2017-09-21T00:33:33.682Z,80.93
2017-09-21T00:36:05.590Z,80.89
2017-09-21T00:38:37.979Z,80.87
2017-09-21T00:41:09.100Z,80.87
2017-09-21T00:43:40.224Z,80.93
2017-09-21T00:46:14.312Z,80.99
2017-09-21T00:48:45.452Z,81.08
2017-09-21T00:51:16.568Z,81.01
2017-09-21T00:53:48.000Z,80.96
2017-09-21T00:56:19.650Z,80.96
2017-09-21T00:58:51.056Z,80.94
2017-09-21T01:01:23.668Z,80.97
2017-09-21T01:03:54.863Z,80.99
2017-09-21T01:06:28.017Z,81.21
2017-09-21T01:08:59.119Z,81.31
2017-09-21T01:11:30.227Z,81.41
2017-09-21T01:14:02.491Z,81.55
2017-09-21T01:16:33.561Z,81.48
2017-09-21T01:19:05.419Z,81.47
2017-09-21T01:21:37.634Z,81.54
2017-09-21T01:24:09.586Z,81.58
2017-09-21T01:26:40.700Z,81.62
2017-09-21T01:29:11.826Z,81.70
2017-09-21T01:31:47.286Z,81.67
2017-09-21T01:34:18.479Z,81.68
2017-09-21T01:36:49.636Z,81.65
2017-09-21T01:39:20.970Z,81.65
2017-09-21T01:41:52.327Z,81.68
2017-09-21T01:44:24.918Z,81.73
2017-09-21T01:46:56.052Z,81.70
2017-09-21T01:49:28.424Z,81.72
2017-09-21T01:51:59.512Z,81.83
2017-09-21T01:54:31.923Z,81.98
2017-09-21T01:57:03.255Z,81.99
2017-09-21T01:59:34.582Z,82.01
2017-09-21T02:02:06.348Z,82.10
2017-09-21T02:04:37.742Z,82.22
2017-09-21T02:07:08.849Z,82.25
2017-09-21T02:09:39.963Z,82.37
2017-09-21T02:12:12.182Z,82.62
2017-09-21T02:14:43.282Z,82.81
2017-09-21T02:17:14.443Z,82.89
2017-09-21T02:19:45.808Z,82.88
2017-09-21T02:22:17.107Z,82.82
2017-09-21T02:24:48.156Z,82.80
2017-09-21T02:27:19.271Z,82.74
2017-09-21T02:29:50.351Z,82.85
2017-09-21T02:32:22.378Z,83.06
2017-09-21T02:35:56.127Z,83.23
2017-09-21T02:38:28.440Z,83.34
2017-09-21T02:40:59.515Z,83.35
2017-09-21T02:43:30.557Z,83.39
2017-09-21T02:46:02.771Z,83.55
2017-09-21T02:48:33.880Z,83.55
2017-09-21T02:51:05.027Z,83.61
2017-09-21T02:53:36.383Z,83.88
2017-09-21T02:56:07.643Z,83.98
2017-09-21T02:58:38.743Z,84.00
2017-09-21T03:01:09.896Z,83.94
2017-09-21T03:03:41.245Z,83.87
2017-09-21T03:06:12.594Z,83.83
2017-09-21T03:08:43.678Z,83.82
2017-09-21T03:11:14.793Z,83.78
2017-09-21T03:13:45.850Z,83.98
2017-09-21T03:16:16.948Z,83.97
2017-09-21T03:18:48.304Z,84.00
2017-09-21T03:21:19.382Z,84.07
2017-09-21T03:23:50.465Z,84.21
2017-09-21T03:26:21.595Z,84.36
2017-09-21T03:28:52.709Z,84.43
2017-09-21T03:31:25.286Z,84.52
2017-09-21T03:33:56.649Z,84.37
2017-09-21T03:36:28.134Z,84.58
2017-09-21T03:38:59.214Z,84.83
2017-09-21T03:41:31.565Z,84.92
2017-09-21T03:44:03.400Z,84.92
2017-09-21T03:46:34.485Z,84.88
2017-09-21T03:49:05.877Z,84.81
2017-09-21T03:51:37.002Z,84.79
2017-09-21T03:54:09.054Z,84.67
2017-09-21T03:56:40.435Z,84.55
2017-09-21T03:59:11.509Z,84.56
2017-09-21T04:01:42.873Z,84.58
2017-09-21T04:04:14.538Z,84.85
2017-09-21T04:06:46.792Z,85.26
2017-09-21T04:09:19.624Z,85.58
2017-09-21T04:11:51.299Z,85.66
2017-09-21T04:14:23.328Z,85.63
2017-09-21T04:16:54.587Z,85.64
2017-09-21T04:19:27.082Z,85.57
2017-09-21T04:21:58.372Z,85.60
2017-09-21T04:24:30.864Z,85.64
2017-09-21T04:27:02.459Z,85.59
2017-09-21T04:29:33.692Z,85.49
2017-09-21T04:32:10.322Z,85.35
2017-09-21T04:34:41.700Z,85.22
2017-09-21T04:37:13.117Z,85.19
2017-09-21T04:39:44.233Z,85.33
2017-09-21T04:42:15.465Z,85.33
2017-09-21T04:44:46.903Z,85.40
2017-09-21T04:47:18.107Z,85.48
2017-09-21T04:49:49.229Z,85.51
2017-09-21T04:52:21.364Z,85.63
2017-09-21T04:54:52.489Z,85.72
2017-09-21T04:57:23.959Z,85.79
2017-09-21T04:59:55.488Z,85.65
2017-09-21T05:02:28.110Z,85.53
2017-09-21T05:04:59.197Z,85.46
2017-09-21T05:07:31.369Z,85.41
2017-09-21T05:10:03.611Z,85.37
2017-09-21T05:12:34.709Z,85.23
2017-09-21T05:15:06.072Z,85.13
2017-09-21T05:17:37.189Z,84.97
2017-09-21T05:20:08.496Z,84.71
2017-09-21T05:22:39.906Z,84.45
2017-09-21T05:25:10.991Z,84.27
2017-09-21T05:27:42.537Z,84.13
2017-09-21T05:30:14.246Z,83.93
2017-09-21T05:32:45.522Z,83.73
2017-09-21T05:35:17.122Z,83.58
2017-09-21T05:37:48.182Z,83.49
2017-09-21T05:40:19.384Z,83.43
2017-09-21T05:42:50.497Z,83.28
2017-09-21T05:45:21.609Z,83.07
2017-09-21T05:47:53.073Z,82.88
2017-09-21T05:50:26.818Z,82.59
2017-09-21T05:52:58.191Z,82.40
2017-09-21T05:55:29.850Z,82.12
2017-09-21T05:58:01.268Z,81.70
2017-09-21T06:00:32.730Z,81.20
2017-09-21T06:03:04.110Z,80.72
2017-09-21T06:05:35.223Z,80.33
2017-09-21T06:08:07.922Z,79.80
2017-09-21T06:10:40.154Z,79.25
2017-09-21T06:13:12.858Z,78.72
2017-09-21T06:15:44.945Z,78.03
2017-09-21T06:18:24.101Z,77.19
2017-09-21T06:20:57.019Z,76.70
2017-09-21T06:23:31.573Z,76.44
2017-09-21T06:28:40.220Z,75.58
2017-09-21T06:31:35.701Z,75.34
2017-09-21T06:34:08.799Z,74.95
2017-09-21T06:36:41.274Z,74.45
2017-09-21T06:42:51.937Z,73.15
2017-09-21T06:45:23.753Z,72.93
2017-09-21T06:47:57.708Z,72.47
2017-09-21T06:50:29.165Z,71.89
2017-09-21T06:53:01.782Z,71.35
2017-09-21T06:55:33.442Z,71.20
2017-09-21T06:58:05.904Z,71.27
2017-09-21T07:00:38.224Z,71.13
2017-09-21T07:03:13.845Z,70.92
2017-09-21T07:05:45.529Z,70.67
2017-09-21T07:08:19.802Z,70.39
2017-09-21T07:10:51.571Z,70.21
2017-09-21T07:13:23.554Z,69.90
2017-09-21T07:15:55.536Z,69.74
2017-09-21T07:18:31.559Z,69.65
2017-09-21T07:21:05.938Z,69.62
2017-09-21T07:23:37.882Z,69.57
2017-09-21T07:26:09.405Z,69.87
2017-09-21T07:28:41.542Z,69.78
2017-09-21T07:31:16.108Z,69.59
2017-09-21T07:33:54.516Z,69.40
2017-09-21T07:36:26.614Z,69.31
2017-09-21T07:38:58.263Z,69.08
2017-09-21T07:41:30.190Z,68.61
2017-09-21T07:44:03.054Z,68.07
2017-09-21T07:46:35.367Z,67.61
2017-09-21T07:49:08.979Z,67.25
2017-09-21T07:51:41.044Z,67.24
2017-09-21T07:54:13.965Z,67.32
2017-09-21T07:56:45.583Z,67.14
2017-09-21T07:59:18.337Z,66.80
2017-09-21T08:01:49.925Z,66.70
2017-09-21T08:04:24.634Z,66.30
2017-09-21T08:06:56.906Z,66.24
2017-09-21T08:09:31.403Z,65.79
2017-09-21T08:12:04.172Z,64.98
2017-09-21T08:14:35.964Z,64.91
2017-09-21T08:17:07.751Z,64.13
2017-09-21T08:19:41.062Z,63.09
2017-09-21T08:22:17.272Z,62.39
2017-09-21T08:24:49.010Z,60.77
2017-09-21T08:27:20.702Z,61.06
2017-09-21T08:29:52.813Z,60.67
2017-09-21T08:32:25.327Z,60.34
2017-09-21T08:35:05.397Z,59.56
2017-09-21T08:37:38.777Z,58.93
2017-09-21T08:40:11.275Z,58.48
2017-09-21T08:42:43.321Z,57.97
2017-09-21T08:45:18.471Z,57.62
2017-09-21T08:47:50.410Z,57.28
2017-09-21T08:50:23.773Z,57.06
2017-09-21T08:52:56.078Z,56.64
2017-09-21T08:55:29.727Z,56.36
2017-09-21T08:58:09.532Z,55.60
2017-09-21T09:00:41.907Z,55.61
2017-09-21T09:03:16.166Z,55.14
2017-09-21T09:05:48.865Z,54.63
2017-09-21T09:08:20.633Z,55.17
2017-09-21T09:10:52.209Z,55.00
2017-09-21T09:13:23.947Z,54.35
2017-09-21T09:15:55.382Z,52.93
2017-09-21T09:18:26.960Z,52.62
2017-09-21T09:20:59.235Z,52.21
2017-09-21T09:33:05.931Z,51.90
2017-09-21T09:35:42.806Z,48.65
2017-09-21T09:38:16.868Z,47.91
2017-09-21T09:40:49.061Z,47.84
2017-09-21T09:43:21.023Z,48.57
2017-09-21T09:45:52.814Z,47.94
2017-09-21T09:48:24.616Z,46.35
2017-09-21T09:51:05.812Z,48.06
2017-09-21T09:53:37.468Z,47.67
2017-09-21T09:56:09.252Z,46.89
2017-09-21T10:00:47.273Z,45.07
2017-09-21T10:03:21.025Z,42.57
2017-09-21T10:05:57.576Z,42.18
2017-09-21T10:08:29.245Z,40.88
2017-09-21T10:11:02.890Z,40.00
2017-09-21T10:13:34.737Z,39.86
2017-09-21T10:16:07.037Z,39.38
2017-09-21T10:18:39.240Z,38.40
2017-09-21T10:21:12.346Z,36.20
2017-09-21T10:23:44.337Z,32.57
2017-09-21T10:26:17.684Z,28.85
2017-09-21T10:28:49.543Z,25.73
2017-09-21T10:31:21.817Z,23.30
2017-09-21T10:33:54.310Z,21.04
2017-09-21T10:36:30.445Z,19.66
2017-09-21T10:39:03.456Z,17.87
2017-09-21T10:41:35.846Z,16.69
2017-09-21T10:44:08.295Z,15.87
2017-09-21T10:46:40.333Z,15.32
2017-09-21T10:49:12.311Z,14.29
2017-09-21T10:51:50.936Z,13.42
2017-09-21T10:54:22.822Z,12.77
2017-09-21T10:56:55.416Z,12.04
2017-09-21T10:59:28.086Z,11.42
2017-09-21T11:02:00.351Z,10.92
2017-09-21T11:04:31.731Z,11.33
2017-09-21T11:07:07.487Z,10.61
2017-09-21T11:09:42.928Z,10.40
2017-09-21T11:12:16.219Z,10.16
2017-09-21T11:14:49.123Z,9.58
2017-09-21T11:17:21.001Z,9.14
2017-09-21T11:19:54.437Z,8.79
2017-09-21T11:22:26.157Z,8.07
2017-09-21T11:24:57.716Z,7.45
2017-09-21T11:27:29.503Z,7.28
2017-09-21T11:30:02.692Z,7.55
2017-09-21T11:32:34.712Z,7.80
2017-09-21T11:35:18.818Z,7.50
2017-09-21T11:37:51.039Z,7.33
2017-09-21T11:40:23.852Z,7.24
2017-09-21T11:42:57.468Z,7.64
2017-09-21T11:45:48.212Z,7.13
2017-09-21T11:48:21.588Z,6.88
2017-09-21T11:50:59.214Z,6.95
2017-09-21T11:53:31.576Z,7.03
2017-09-21T11:56:06.689Z,6.86
2017-09-21T11:58:39.345Z,6.34
2017-09-21T12:01:11.476Z,6.03
2017-09-21T12:06:39.738Z,6.20
2017-09-21T12:09:12.487Z,6.17
2017-09-21T12:11:46.854Z,6.31
2017-09-21T12:14:20.271Z,6.37
2017-09-21T12:16:53.030Z,6.18
2017-09-21T12:19:24.737Z,5.71
2017-09-21T12:21:58.440Z,5.95
2017-09-21T12:28:17.035Z,5.77
2017-09-21T12:30:49.217Z,5.78
2017-09-21T12:33:22.285Z,5.71
2017-09-21T12:35:59.342Z,5.43
2017-09-21T12:38:31.097Z,5.37
2017-09-21T12:41:03.262Z,5.21
2017-09-21T12:43:35.114Z,5.41
2017-09-21T12:46:07.127Z,5.04
2017-09-21T12:48:39.371Z,4.81
2017-09-21T12:51:10.811Z,5.23
2017-09-21T12:53:42.487Z,5.26
2017-09-21T12:56:17.739Z,5.63
2017-09-21T12:58:49.810Z,5.75
2017-09-21T13:01:21.404Z,6.01
2017-09-21T13:03:55.832Z,5.61
2017-09-21T13:06:27.738Z,5.42
2017-09-21T13:08:59.836Z,5.17
2017-09-21T13:15:30.370Z,4.54
2017-09-21T13:18:03.216Z,4.91
2017-09-21T13:20:34.774Z,4.85
2017-09-21T13:23:06.280Z,4.96
2017-09-21T13:25:44.827Z,4.87
2017-09-21T13:28:15.961Z,5.84
2017-09-21T13:36:52.070Z,5.35
2017-09-21T13:39:23.255Z,4.74
2017-09-21T13:41:56.911Z,4.83
2017-09-21T13:44:28.399Z,4.76
2017-09-21T13:46:59.900Z,4.63
2017-09-21T13:49:32.125Z,4.68
2017-09-21T13:52:16.931Z,5.23
2017-09-21T13:54:51.033Z,5.36
2017-09-21T13:57:24.010Z,5.06
2017-09-21T13:59:55.507Z,5.73
2017-09-21T14:02:31.973Z,4.98
2017-09-21T14:05:06.716Z,4.98
2017-09-21T14:07:39.654Z,5.18
2017-09-21T14:13:12.318Z,5.42
2017-09-21T14:15:43.726Z,5.36
2017-09-21T14:18:19.828Z,5.51
2017-09-21T14:20:51.291Z,5.71
2017-09-21T14:23:22.789Z,5.44
2017-09-21T14:25:54.038Z,5.48
2017-09-21T14:28:25.249Z,6.11
2017-09-21T14:30:56.677Z,5.87
2017-09-21T14:33:28.053Z,5.45
2017-09-21T14:35:59.820Z,6.24
2017-09-21T14:38:31.150Z,5.84
2017-09-21T14:41:02.874Z,6.49
2017-09-21T14:43:34.386Z,6.40
2017-09-21T14:46:06.716Z,6.18
2017-09-21T14:48:37.941Z,6.24
2017-09-21T14:51:09.576Z,6.73
2017-09-21T14:53:40.757Z,7.29
2017-09-21T14:56:14.206Z,7.22
2017-09-21T14:58:46.064Z,7.08
2017-09-21T15:01:18.818Z,6.80
2017-09-21T15:03:51.392Z,6.65
2017-09-21T15:06:29.730Z,7.34
2017-09-21T15:09:07.029Z,7.89
2017-09-21T15:11:38.833Z,8.74
2017-09-21T15:14:09.930Z,9.03
2017-09-21T15:19:46.087Z,9.02
2017-09-21T15:22:17.631Z,9.43
2017-09-21T15:24:49.019Z,9.75
2017-09-21T15:27:21.395Z,10.18
2017-09-21T15:29:52.753Z,10.25
2017-09-21T15:32:27.061Z,10.07
2017-09-21T15:34:58.244Z,10.85
2017-09-21T15:37:30.022Z,11.77
2017-09-21T15:40:02.174Z,12.72
2017-09-21T15:42:33.724Z,13.05
2017-09-21T15:45:07.629Z,12.95
2017-09-21T15:47:43.208Z,12.77
2017-09-21T15:53:21.152Z,13.63
2017-09-21T15:55:56.441Z,14.40
2017-09-21T15:58:32.719Z,14.51
2017-09-21T16:01:06.334Z,14.78
2017-09-21T16:03:49.267Z,15.41
2017-09-21T16:09:25.922Z,15.11
2017-09-21T16:11:57.409Z,14.83
2017-09-21T16:17:34.449Z,14.82
2017-09-21T16:23:17.365Z,15.58
2017-09-21T16:25:48.515Z,16.38
2017-09-21T16:28:19.797Z,19.99
2017-09-21T16:30:51.253Z,19.93
2017-09-21T16:33:23.240Z,21.46
2017-09-21T16:35:54.984Z,22.70
2017-09-21T16:38:26.802Z,23.73
2017-09-21T16:40:58.528Z,24.95
2017-09-21T16:43:36.708Z,35.10
2017-09-21T16:46:14.711Z,39.52
2017-09-21T16:48:48.535Z,37.85
2017-09-21T16:54:19.875Z,41.61
2017-09-21T16:56:56.063Z,39.44
2017-09-21T17:02:32.202Z,40.85
2017-09-21T17:05:04.095Z,42.21
2017-09-21T17:07:35.402Z,40.66
2017-09-21T17:10:06.748Z,42.16
2017-09-21T17:12:38.572Z,39.58
2017-09-21T17:15:09.683Z,40.57
2017-09-21T17:17:41.069Z,40.18
2017-09-21T17:20:12.380Z,43.70
2017-09-21T17:22:43.713Z,41.55
2017-09-21T17:25:15.481Z,42.28
2017-09-21T17:27:46.833Z,43.68
2017-09-21T17:30:19.640Z,42.98
2017-09-21T17:32:51.031Z,44.21
2017-09-21T17:35:22.117Z,44.35
2017-09-21T17:37:53.480Z,43.03
2017-09-21T17:40:24.835Z,43.60
2017-09-21T17:42:55.898Z,43.48
2017-09-21T17:45:27.262Z,44.39
2017-09-21T17:47:59.108Z,43.99
2017-09-21T17:50:42.192Z,44.26
2017-09-21T17:56:14.379Z,43.11
2017-09-21T17:58:48.610Z,44.16
2017-09-21T18:01:20.603Z,45.12
2017-09-21T18:03:52.313Z,45.22
2017-09-21T18:06:25.319Z,42.53
2017-09-21T18:08:56.911Z,43.63
2017-09-21T18:11:28.594Z,42.37
2017-09-21T18:14:01.616Z,42.44
2017-09-21T18:16:39.326Z,41.45
2017-09-21T18:19:13.196Z,43.71
2017-09-21T18:21:48.201Z,42.02
2017-09-21T18:24:24.898Z,46.98
2017-09-21T18:26:59.778Z,47.00
2017-09-21T18:29:31.396Z,46.24
2017-09-21T18:32:05.847Z,44.28
2017-09-21T18:34:41.588Z,45.90
2017-09-21T18:37:13.643Z,47.25
2017-09-21T18:39:45.415Z,45.38
2017-09-21T18:42:17.986Z,45.60
2017-09-21T18:44:49.445Z,45.62
2017-09-21T18:47:20.910Z,46.18
2017-09-21T18:49:59.450Z,44.56
2017-09-21T18:53:02.958Z,44.32
2017-09-21T18:55:36.354Z,45.17
2017-09-21T18:58:09.290Z,45.37
2017-09-21T19:00:40.486Z,45.33
2017-09-21T19:03:11.586Z,45.04
2017-09-21T19:05:42.996Z,45.54
2017-09-21T19:08:14.288Z,45.85
2017-09-21T19:10:45.587Z,45.94
2017-09-21T19:13:16.659Z,50.26
2017-09-21T19:15:48.245Z,49.89
2017-09-21T19:18:19.320Z,49.27
2017-09-21T19:20:50.675Z,49.57
2017-09-21T19:23:22.051Z,48.78
2017-09-21T19:25:53.247Z,48.41
2017-09-21T19:28:24.388Z,48.08
2017-09-21T19:30:55.774Z,50.47
2017-09-21T19:33:27.041Z,49.62
2017-09-21T19:35:58.530Z,50.17
2017-09-21T19:38:30.984Z,49.42
2017-09-21T19:41:02.220Z,50.64
2017-09-21T19:43:33.954Z,50.52
2017-09-21T19:46:06.414Z,50.56
2017-09-21T19:48:37.506Z,50.80
2017-09-21T19:51:08.992Z,49.54
2017-09-21T19:53:40.062Z,48.76
2017-09-21T19:56:11.350Z,48.95
2017-09-21T19:58:42.731Z,49.64
2017-09-21T20:01:14.021Z,49.09
2017-09-21T20:03:45.487Z,48.93
2017-09-21T20:06:22.583Z,49.38
2017-09-21T20:08:53.632Z,49.51
2017-09-21T20:11:25.672Z,49.92
2017-09-21T20:13:57.105Z,50.38
2017-09-21T20:16:30.162Z,51.41
2017-09-21T20:19:02.032Z,51.36
2017-09-21T20:21:37.880Z,51.86
2017-09-21T20:24:10.701Z,51.67
2017-09-21T20:26:43.356Z,51.86
2017-09-21T20:29:14.433Z,52.54
2017-09-21T20:31:45.820Z,52.91
2017-09-21T20:34:16.899Z,53.09
2017-09-21T20:36:48.315Z,53.61
2017-09-21T20:39:19.592Z,53.98
2017-09-21T20:41:50.678Z,54.17
2017-09-21T20:44:21.843Z,54.60
2017-09-21T20:46:54.231Z,54.78
2017-09-21T20:49:25.317Z,54.85
2017-09-21T20:51:59.372Z,55.03
2017-09-21T20:54:33.159Z,55.16
2017-09-21T20:57:11.149Z,55.19
2017-09-21T20:59:42.286Z,55.17
2017-09-21T21:02:13.819Z,55.23
2017-09-21T21:04:45.180Z,55.54
2017-09-21T21:07:16.227Z,55.83
2017-09-21T21:09:58.889Z,56.05
2017-09-21T21:12:36.942Z,56.27
2017-09-21T21:15:42.014Z,56.45
2017-09-21T21:18:15.060Z,56.83
2017-09-21T21:20:47.417Z,57.06
2017-09-21T21:23:23.402Z,57.20
2017-09-21T21:28:59.810Z,57.57
2017-09-21T21:31:31.601Z,57.97
2017-09-21T21:34:04.381Z,58.12
2017-09-21T21:36:37.306Z,58.33
2017-09-21T21:39:08.868Z,58.29
2017-09-21T21:41:40.808Z,58.23
2017-09-21T21:44:11.848Z,58.28
2017-09-21T21:46:43.249Z,58.69
2017-09-21T21:49:14.332Z,58.80
2017-09-21T21:51:45.435Z,58.85
2017-09-21T21:54:17.805Z,58.91
2017-09-21T21:56:48.954Z,59.12
2017-09-21T21:59:20.407Z,59.50
2017-09-21T22:01:51.826Z,59.89
2017-09-21T22:04:22.932Z,60.38
2017-09-21T22:06:54.047Z,60.64
2017-09-21T22:09:25.432Z,60.85
2017-09-21T22:11:56.576Z,60.91
2017-09-21T22:14:30.350Z,61.09
2017-09-21T22:17:02.183Z,61.45
2017-09-21T22:19:34.862Z,61.56
2017-09-21T22:22:06.548Z,61.60
2017-09-21T22:24:38.478Z,61.84
2017-09-21T22:27:09.618Z,61.84
2017-09-21T22:29:41.385Z,62.38
2017-09-21T22:32:12.725Z,62.82
2017-09-21T22:34:43.811Z,63.12
2017-09-21T22:37:15.223Z,63.22
2017-09-21T22:39:46.323Z,63.17
2017-09-21T22:42:17.662Z,63.50
2017-09-21T22:44:49.211Z,64.07
2017-09-21T22:47:20.324Z,64.33
2017-09-21T22:49:51.398Z,64.81
2017-09-21T22:52:22.948Z,65.09
2017-09-21T22:54:54.049Z,65.39
2017-09-21T22:57:25.132Z,65.85
2017-09-21T22:59:56.881Z,65.98
2017-09-21T23:02:28.006Z,66.11
2017-09-21T23:04:59.134Z,66.39
2017-09-21T23:07:31.586Z,66.47
2017-09-21T23:10:04.746Z,66.59
2017-09-21T23:12:35.824Z,66.87
2017-09-21T23:15:07.219Z,67.45
2017-09-21T23:17:39.001Z,67.65
2017-09-21T23:20:10.114Z,67.74
2017-09-21T23:23:12.094Z,68.22
2017-09-21T23:25:43.418Z,69.01
2017-09-21T23:28:14.491Z,69.27
2017-09-21T23:30:46.080Z,69.44
2017-09-21T23:33:17.164Z,69.55
2017-09-21T23:35:48.264Z,69.70
2017-09-21T23:38:19.721Z,69.73
2017-09-21T23:40:50.856Z,69.84
2017-09-21T23:43:21.993Z,69.99
2017-09-21T23:45:53.345Z,70.20
2017-09-21T23:48:24.431Z,70.38
2017-09-21T23:50:56.178Z,70.57
2017-09-21T23:53:27.275Z,70.60
2017-09-21T23:55:58.423Z,70.70
2017-09-21T23:58:29.481Z,70.80
